Time;durP1;ratioP1;P1;durP2;ratioP2;P2;SDS_P1;SDS_P2;PMS_P1;PMS_P2;Temp;Humidity;BMP_temperature;BMP_pressure;BME280_temperature;BME280_humidity;BME280_pressure;Samples;Min_cycle;Max_cycle;Signal;HPM_P1;HPM_P2
2023/04/04 00:00:48;;;;;;;10.00;6.50;;;;;;;8.97;82.64;99073.67;78470;1295;3055702;-67
2023/04/04 00:03:16;;;;;;;6.30;4.10;;;;;;;8.95;82.75;99076.45;79579;1294;3011848;-68
2023/04/04 00:05:44;;;;;;;6.50;4.30;;;;;;;9.18;83.31;99076.23;79595;1295;3011864;-73
2023/04/04 00:08:12;;;;;;;7.20;4.90;;;;;;;9.72;81.86;99074.47;78457;1298;3052316;-68
2023/04/04 00:10:43;;;;;;;8.60;5.10;;;;;;;9.67;81.70;99076.92;77864;1299;3026532;-67
2023/04/04 00:13:12;;;;;;;8.20;6.10;;;;;;;9.53;81.36;99084.22;78420;1295;3068628;-72
2023/04/04 00:15:38;;;;;;;8.80;6.40;;;;;;;9.13;82.45;99095.21;79581;1295;3013464;-69
2023/04/04 00:18:06;;;;;;;10.50;7.80;;;;;;;9.18;81.87;99099.33;79513;1296;3011719;-68
2023/04/04 00:20:35;;;;;;;12.60;7.10;;;;;;;8.82;82.98;99095.00;78252;1300;3053381;-68
2023/04/04 00:23:02;;;;;;;7.00;4.00;;;;;;;8.57;84.92;99094.01;79549;1297;3019077;-65
2023/04/04 00:25:28;;;;;;;8.70;5.20;;;;;;;8.98;84.35;99089.52;79535;1300;3012927;-67
2023/04/04 00:27:59;;;;;;;9.70;5.10;;;;;;;9.63;82.81;99086.22;78148;1295;3028842;-70
2023/04/04 00:30:25;;;;;;;8.30;5.30;;;;;;;9.85;81.28;99091.71;79702;1296;3012910;-68
2023/04/04 00:32:55;;;;;;;7.90;5.40;;;;;;;9.45;81.50;99091.60;78904;1300;3011692;-68
2023/04/04 00:35:22;;;;;;;11.20;6.80;;;;;;;9.35;81.55;99091.15;79632;1295;3013224;-67
2023/04/04 00:37:49;;;;;;;12.20;6.40;;;;;;;9.01;82.31;99087.25;79611;1294;3011740;-66
2023/04/04 00:40:17;;;;;;;12.30;7.10;;;;;;;8.73;83.61;99087.16;78270;1301;3052135;-68
2023/04/04 00:42:45;;;;;;;6.50;3.80;;;;;;;8.62;84.27;99096.52;79478;1300;3013993;-67
2023/04/04 00:45:12;;;;;;;7.00;4.80;;;;;;;9.01;84.16;99095.80;79637;1295;3011641;-65
2023/04/04 00:47:39;;;;;;;6.90;5.10;;;;;;;9.84;81.62;99092.44;78136;1300;3057016;-70
2023/04/04 00:50:07;;;;;;;8.20;5.60;;;;;;;9.55;80.87;99095.83;79553;1295;3013700;-69
2023/04/04 00:52:33;;;;;;;8.30;6.40;;;;;;;9.39;81.67;99099.11;79499;1294;3012474;-65
2023/04/04 00:55:01;;;;;;;10.20;6.70;;;;;;;9.10;82.56;99096.30;78292;1297;3027655;-67
2023/04/04 00:57:28;;;;;;;10.00;6.70;;;;;;;8.89;83.06;99096.86;79422;1301;3013161;-70
2023/04/04 00:59:58;;;;;;;10.70;7.30;;;;;;;8.69;84.20;99101.89;79632;1293;3011848;-67
2023/04/04 01:02:26;;;;;;;9.60;5.00;;;;;;;8.53;84.98;99101.04;78169;1300;3058883;-68
2023/04/04 01:04:55;;;;;;;7.00;4.90;;;;;;;9.15;84.99;99099.31;79740;1298;3012985;-68
2023/04/04 01:07:26;;;;;;;10.70;5.40;;;;;;;9.71;81.94;99094.31;78295;1300;3053287;-71
2023/04/04 01:09:57;;;;;;;9.20;6.70;;;;;;;9.48;81.39;99102.39;79638;1297;3011778;-69
2023/04/04 01:12:25;;;;;;;14.10;7.60;;;;;;;9.35;82.09;99098.27;78149;1300;3026912;-70
2023/04/04 01:14:51;;;;;;;14.00;8.00;;;;;;;9.06;83.03;99099.16;79487;1300;3018835;-68
2023/04/04 01:17:18;;;;;;;14.60;8.30;;;;;;;8.95;83.43;99100.68;79451;1295;3013421;-67
2023/04/04 01:19:52;;;;;;;16.20;10.30;;;;;;;8.83;83.85;99097.92;78421;1298;3028133;-67
2023/04/04 01:22:22;;;;;;;10.00;5.80;;;;;;;8.62;84.92;99101.92;78239;1295;3049717;-68
2023/04/04 01:24:49;;;;;;;13.40;7.20;;;;;;;9.03;84.57;99107.86;79309;1294;3013620;-67
2023/04/04 01:27:16;;;;;;;15.50;8.90;;;;;;;9.50;82.35;99107.17;79388;1300;3011493;-66
2023/04/04 01:29:53;;;;;;;12.50;8.30;;;;;;;9.57;81.79;99101.84;78506;1298;3054412;-68
2023/04/04 01:32:24;;;;;;;16.90;10.30;;;;;;;9.54;81.35;99098.30;79439;1292;3013070;-66
2023/04/04 01:35:08;;;;;;;15.40;10.70;;;;;;;9.46;81.48;99098.33;78207;1299;3057988;-66
2023/04/04 01:38:04;;;;;;;19.40;11.60;;;;;;;9.37;81.14;99103.25;78160;1298;3050356;-69
2023/04/04 01:40:38;;;;;;;20.90;11.50;;;;;;;9.07;81.88;99107.66;78180;1293;3054766;-65
2023/04/04 01:43:08;;;;;;;12.00;7.50;;;;;;;8.98;82.26;99115.36;78214;1301;3050088;-65
2023/04/04 01:45:36;;;;;;;10.60;6.90;;;;;;;9.55;82.01;99121.38;79434;1301;3013061;-69
2023/04/04 01:48:10;;;;;;;13.30;9.10;;;;;;;9.90;80.00;99117.28;78263;1298;3054168;-65
2023/04/04 01:50:37;;;;;;;16.90;10.00;;;;;;;9.93;79.78;99112.34;79694;1295;3011860;-69
2023/04/04 01:53:05;;;;;;;20.90;12.10;;;;;;;9.72;79.94;99106.65;79312;1293;3011849;-68
2023/04/04 01:55:34;;;;;;;26.80;13.00;;;;;;;9.40;81.02;99109.84;78397;1297;3049935;-69
2023/04/04 01:58:02;;;;;;;27.60;14.60;;;;;;;9.26;81.87;99114.23;79482;1296;3013021;-68
2023/04/04 02:00:33;;;;;;;21.00;13.10;;;;;;;9.12;82.36;99114.71;79206;1297;3011560;-69
2023/04/04 02:02:59;;;;;;;19.80;11.80;;;;;;;9.05;82.71;99116.55;79659;1297;3013044;-66
2023/04/04 02:05:26;;;;;;;14.00;8.70;;;;;;;8.89;83.25;99120.42;79475;1293;3011626;-66
2023/04/04 02:07:54;;;;;;;16.80;8.80;;;;;;;9.39;82.41;99124.27;78365;1295;3026724;-68
2023/04/04 02:10:28;;;;;;;13.70;8.40;;;;;;;9.94;80.20;99120.36;79720;1297;3011638;-66
2023/04/04 02:12:56;;;;;;;12.70;8.00;;;;;;;9.94;79.90;99122.80;78245;1300;3049597;-66
2023/04/04 02:15:24;;;;;;;16.90;10.40;;;;;;;9.92;79.31;99123.41;79392;1300;3018358;-68
2023/04/04 02:17:52;;;;;;;16.40;10.30;;;;;;;9.51;80.20;99125.95;79586;1295;3011616;-67
2023/04/04 02:20:20;;;;;;;15.30;10.90;;;;;;;9.24;81.46;99134.94;78446;1298;3052684;-70
2023/04/04 02:22:53;;;;;;;18.10;10.70;;;;;;;9.04;82.49;99137.73;79407;1293;3018198;-69
2023/04/04 02:25:22;;;;;;;17.00;10.40;;;;;;;9.04;81.84;99142.81;78394;1294;3056371;-67
2023/04/04 02:27:48;;;;;;;11.30;6.70;;;;;;;8.93;82.03;99142.73;79791;1293;3012482;-66
2023/04/04 02:30:15;;;;;;;14.50;7.40;;;;;;;9.16;82.66;99145.23;79551;1295;3012911;-68
2023/04/04 02:32:44;;;;;;;15.80;8.80;;;;;;;9.82;81.08;99143.14;78389;1298;3053049;-70
2023/04/04 02:35:15;;;;;;;14.60;8.90;;;;;;;9.80;79.69;99140.59;79626;1298;3013972;-67
2023/04/04 02:37:45;;;;;;;20.10;11.70;;;;;;;9.64;80.19;99139.84;78372;1292;3069361;-68
2023/04/04 02:40:14;;;;;;;20.40;11.80;;;;;;;9.36;80.80;99138.60;79529;1295;3012108;-65
2023/04/04 02:42:43;;;;;;;22.70;12.30;;;;;;;9.06;81.95;99136.37;78420;1298;3028305;-64
2023/04/04 02:45:10;;;;;;;20.90;12.40;;;;;;;8.94;82.21;99132.19;79617;1293;3013241;-68
2023/04/04 02:47:49;;;;;;;21.90;12.30;;;;;;;8.79;83.07;99132.92;78242;1300;3052071;-67
2023/04/04 02:50:16;;;;;;;15.10;7.80;;;;;;;8.72;83.39;99131.89;79333;1299;3011536;-65
2023/04/04 02:52:46;;;;;;;18.90;9.20;;;;;;;9.26;82.35;99131.50;78117;1300;3052604;-68
2023/04/04 02:55:13;;;;;;;16.50;9.40;;;;;;;9.75;80.12;99127.84;79622;1295;3013166;-68
2023/04/04 02:57:41;;;;;;;16.30;9.10;;;;;;;9.84;79.25;99124.31;79593;1292;3011917;-70
2023/04/04 03:00:10;;;;;;;20.70;12.20;;;;;;;9.84;79.52;99123.79;78226;1301;3047862;-67
2023/04/04 03:02:41;;;;;;;25.70;14.30;;;;;;;9.48;79.94;99122.98;79525;1295;3011701;-67
2023/04/04 03:05:09;;;;;;;24.40;14.10;;;;;;;9.20;81.18;99122.75;78074;1300;3050696;-66
2023/04/04 03:07:37;;;;;;;29.10;14.80;;;;;;;9.09;81.68;99126.75;79566;1299;3013294;-68
2023/04/04 03:10:05;;;;;;;27.70;14.30;;;;;;;8.92;82.29;99127.79;79450;1300;3012172;-66
2023/04/04 03:12:34;;;;;;;21.70;9.80;;;;;;;8.78;83.27;99129.81;78390;1294;3050084;-66
2023/04/04 03:15:04;;;;;;;19.10;9.10;;;;;;;9.33;82.07;99129.14;79667;1292;3011514;-68
2023/04/04 03:17:36;;;;;;;22.70;10.00;;;;;;;9.82;79.91;99131.56;78230;1300;3051034;-67
2023/04/04 03:20:03;;;;;;;21.20;11.00;;;;;;;9.81;79.12;99135.13;79609;1293;3020666;-68
2023/04/04 03:22:30;;;;;;;23.80;12.40;;;;;;;9.66;79.44;99137.82;79381;1300;3011962;-68
2023/04/04 03:25:00;;;;;;;22.50;12.30;;;;;;;9.35;80.34;99137.60;78084;1300;3053104;-68
2023/04/04 03:27:31;;;;;;;28.80;14.20;;;;;;;9.26;80.75;99136.23;79683;1300;3013568;-66
2023/04/04 03:29:59;;;;;;;27.50;15.60;;;;;;;9.08;81.37;99145.67;78241;1295;3057255;-66
2023/04/04 03:32:30;;;;;;;29.30;14.40;;;;;;;8.90;82.34;99147.63;79718;1293;3013408;-67
2023/04/04 03:34:58;;;;;;;16.80;9.00;;;;;;;8.77;83.04;99154.16;78415;1293;3026079;-63
2023/04/04 03:37:28;;;;;;;19.40;10.30;;;;;;;9.20;82.54;99152.63;79701;1298;3012895;-68
2023/04/04 03:39:56;;;;;;;22.70;11.30;;;;;;;9.66;80.17;99154.60;78243;1300;3027984;-66
2023/04/04 03:42:23;;;;;;;29.90;13.20;;;;;;;9.74;79.55;99154.80;79693;1298;3014170;-66
2023/04/04 03:44:52;;;;;;;21.70;12.70;;;;;;;9.52;79.90;99153.73;79386;1297;3013159;-69
2023/04/04 03:47:28;;;;;;;26.40;13.50;;;;;;;9.32;80.64;99149.48;78502;1298;3057592;-67
2023/04/04 03:50:04;;;;;;;27.30;14.90;;;;;;;9.10;81.48;99147.84;79225;1293;3013009;-67
2023/04/04 03:52:37;;;;;;;33.70;16.80;;;;;;;8.98;81.71;99151.34;79617;1292;3013151;-67
2023/04/04 03:55:06;;;;;;;32.50;16.20;;;;;;;8.96;81.49;99155.30;78492;1297;3053778;-70
2023/04/04 03:57:34;;;;;;;18.70;10.50;;;;;;;8.92;81.88;99159.02;79570;1300;3013383;-68
2023/04/04 04:00:03;;;;;;;20.00;10.80;;;;;;;9.44;81.00;99164.17;78430;1295;3028556;-68
2023/04/04 04:02:45;;;;;;;31.00;14.10;;;;;;;9.85;78.99;99166.02;78081;1299;3053513;-68
2023/04/04 04:05:12;;;;;;;26.70;15.10;;;;;;;9.89;78.80;99168.27;79625;1298;3013088;-65
2023/04/04 04:07:38;;;;;;;26.60;15.80;;;;;;;9.69;78.99;99171.19;79482;1293;3013200;-66
2023/04/04 04:10:06;;;;;;;27.30;15.90;;;;;;;9.55;79.47;99178.17;77975;1301;3028214;-64
2023/04/04 04:12:33;;;;;;;27.70;15.50;;;;;;;9.24;80.41;99183.72;79687;1295;3011730;-69
2023/04/04 04:15:00;;;;;;;22.30;14.30;;;;;;;9.06;81.27;99181.46;79384;1299;3014297;-66
2023/04/04 04:17:39;;;;;;;28.80;15.90;;;;;;;8.81;82.45;99188.65;78381;1300;3053070;-68
2023/04/04 04:20:07;;;;;;;18.70;10.20;;;;;;;8.69;83.69;99187.95;79638;1299;3011637;-65
2023/04/04 04:22:38;;;;;;;17.10;9.10;;;;;;;9.33;82.36;99186.34;78444;1293;3051471;-69
2023/04/04 04:25:05;;;;;;;17.80;10.50;;;;;;;9.92;79.66;99189.21;79267;1294;3013524;-68
2023/04/04 04:27:32;;;;;;;19.70;10.60;;;;;;;10.23;78.92;99186.04;79232;1294;3013583;-68
2023/04/04 04:30:01;;;;;;;23.90;12.70;;;;;;;10.17;77.97;99190.66;78343;1298;3049618;-64
2023/04/04 04:32:29;;;;;;;26.00;14.00;;;;;;;10.07;78.23;99197.54;79509;1300;3012794;-66
2023/04/04 04:34:56;;;;;;;21.70;11.80;;;;;;;9.99;78.29;99198.20;79567;1295;3013761;-68
2023/04/04 04:37:30;;;;;;;26.80;16.40;;;;;;;9.85;78.42;99198.20;78280;1294;3052140;-69
2023/04/04 04:40:00;;;;;;;27.90;16.50;;;;;;;9.77;78.67;99200.25;79668;1298;3012917;-69
2023/04/04 04:42:45;;;;;;;18.30;11.30;;;;;;;9.72;78.99;99206.67;78466;1298;3054822;-65
2023/04/04 04:45:13;;;;;;;22.80;12.30;;;;;;;10.40;77.82;99207.74;79501;1298;3013512;-70
2023/04/04 04:47:44;;;;;;;22.60;13.70;;;;;;;10.96;75.17;99200.42;78254;1298;3051655;-68
2023/04/04 04:50:12;;;;;;;28.50;14.50;;;;;;;10.92;74.22;99204.22;79634;1297;3013130;-63
2023/04/04 04:52:44;;;;;;;32.60;18.40;;;;;;;10.85;74.48;99213.45;78199;1296;3052488;-68
2023/04/04 04:55:19;;;;;;;30.10;16.80;;;;;;;10.64;75.09;99208.16;79073;1295;3013281;-69
2023/04/04 04:58:00;;;;;;;30.70;16.90;;;;;;;10.51;75.81;99208.44;78426;1299;3058225;-69
2023/04/04 05:00:27;;;;;;;29.20;17.20;;;;;;;10.37;76.34;99211.46;79640;1298;3013244;-67
2023/04/04 05:02:56;;;;;;;28.10;17.70;;;;;;;10.26;76.71;99217.02;79202;1300;3011388;-68
2023/04/04 05:05:33;;;;;;;28.00;15.80;;;;;;;10.18;77.09;99219.64;78265;1301;3053155;-66
2023/04/04 05:08:03;;;;;;;30.10;17.60;;;;;;;10.11;77.45;99216.73;79487;1300;3011584;-69
2023/04/04 05:10:31;;;;;;;23.40;11.50;;;;;;;10.04;77.72;99222.09;78262;1300;3067888;-67
2023/04/04 05:12:58;;;;;;;28.80;14.50;;;;;;;10.55;76.52;99217.64;79530;1296;3013063;-68
2023/04/04 05:15:29;;;;;;;25.00;15.30;;;;;;;11.04;74.28;99216.91;79486;1295;3011954;-69
2023/04/04 05:17:58;;;;;;;25.10;14.50;;;;;;;11.21;73.45;99219.98;78380;1295;3053873;-67
2023/04/04 05:20:26;;;;;;;25.60;14.80;;;;;;;11.18;73.46;99215.96;79654;1298;3013043;-69
2023/04/04 05:22:53;;;;;;;28.00;15.60;;;;;;;10.99;74.02;99213.95;79395;1300;3012006;-73
2023/04/04 05:25:26;;;;;;;33.50;19.00;;;;;;;10.77;74.61;99219.92;78204;1296;3069893;-70
2023/04/04 05:27:54;;;;;;;29.70;16.20;;;;;;;10.62;75.56;99219.16;79634;1296;3021329;-70
2023/04/04 05:30:21;;;;;;;26.00;16.00;;;;;;;10.55;76.12;99223.23;79624;1296;3011696;-72
2023/04/04 05:33:19;;;;;;;26.60;15.00;;;;;;;10.48;76.09;99230.74;78202;1294;3053065;-72
2023/04/04 05:35:58;;;;;;;25.30;15.30;;;;;;;10.39;76.65;99231.13;78159;1300;3051803;-72
2023/04/04 05:38:26;;;;;;;23.70;15.80;;;;;;;10.32;77.05;99231.15;79746;1298;3011480;-66
2023/04/04 05:40:55;;;;;;;17.10;10.00;;;;;;;10.23;77.64;99234.90;79052;1298;3013244;-71
2023/04/04 05:43:22;;;;;;;21.00;10.90;;;;;;;10.76;76.75;99231.42;80202;1297;3012895;-73
2023/04/04 05:45:58;;;;;;;18.20;11.30;;;;;;;11.34;74.29;99228.77;78372;1297;3058257;-68
2023/04/04 05:48:26;;;;;;;21.70;13.30;;;;;;;11.39;73.93;99231.77;79413;1294;3011955;-70
2023/04/04 05:50:53;;;;;;;23.80;14.20;;;;;;;11.29;73.99;99233.31;79493;1295;3011628;-68
2023/04/04 05:53:27;;;;;;;26.30;15.30;;;;;;;11.11;74.73;99237.32;78223;1300;3052044;-68
2023/04/04 05:55:53;;;;;;;25.00;15.00;;;;;;;10.96;75.52;99237.05;79633;1300;3018731;-69
2023/04/04 05:58:28;;;;;;;28.00;15.30;;;;;;;10.91;75.73;99240.42;78170;1300;3052024;-70
2023/04/04 06:00:57;;;;;;;28.40;15.30;;;;;;;10.82;75.88;99238.36;79320;1298;3013603;-70
2023/04/04 06:03:27;;;;;;;31.10;16.00;;;;;;;10.68;76.59;99236.27;78880;1300;3013038;-69
2023/04/04 06:05:55;;;;;;;31.90;15.50;;;;;;;10.62;77.07;99240.34;79423;1298;3013524;-70
2023/04/04 06:08:26;;;;;;;25.70;15.60;;;;;;;10.63;77.20;99246.38;78170;1299;3051739;-69
2023/04/04 06:10:54;;;;;;;18.20;10.30;;;;;;;10.62;77.02;99251.52;79466;1300;3013463;-70
2023/04/04 06:13:20;;;;;;;21.50;12.50;;;;;;;11.12;75.69;99253.71;81920;1296;3011416;-70
2023/04/04 06:15:53;;;;;;;25.00;13.20;;;;;;;11.72;73.50;99255.83;80655;1296;3056574;-70
2023/04/04 06:18:20;;;;;;;21.90;13.40;;;;;;;11.92;72.81;99262.73;82021;1296;3012394;-73
2023/04/04 06:20:47;;;;;;;26.60;15.40;;;;;;;11.86;72.44;99268.25;81983;1296;3011334;-73
2023/04/04 06:23:16;;;;;;;30.70;16.20;;;;;;;11.43;73.48;99263.59;80704;1299;3051746;-71
2023/04/04 06:25:46;;;;;;;22.90;14.60;;;;;;;11.27;74.23;99266.74;81942;1301;3011985;-71
2023/04/04 06:28:16;;;;;;;31.00;15.40;;;;;;;11.27;74.31;99267.85;80651;1295;3068633;-70
2023/04/04 06:30:45;;;;;;;24.80;15.60;;;;;;;11.23;74.30;99272.98;81884;1298;3011466;-69
2023/04/04 06:33:17;;;;;;;28.90;16.60;;;;;;;11.04;74.73;99277.04;80715;1294;3055719;-72
2023/04/04 06:35:46;;;;;;;27.60;15.70;;;;;;;11.01;74.91;99278.45;81937;1296;3011118;-71
2023/04/04 06:38:15;;;;;;;27.40;16.90;;;;;;;10.95;75.12;99282.04;80726;1295;3026846;-67
2023/04/04 06:40:42;;;;;;;28.80;16.40;;;;;;;10.85;75.38;99287.03;81992;1299;3018293;-72
2023/04/04 06:43:09;;;;;;;29.30;17.20;;;;;;;10.85;75.63;99289.15;81969;1298;3011230;-69
2023/04/04 06:45:44;;;;;;;34.60;17.80;;;;;;;10.85;75.43;99292.65;80687;1296;3067754;-71
2023/04/04 06:48:11;;;;;;;30.00;17.00;;;;;;;10.80;75.54;99293.15;81972;1296;3011348;-71
2023/04/04 06:50:39;;;;;;;33.00;17.00;;;;;;;10.75;75.55;99296.96;81957;1294;3011519;-68
2023/04/04 06:53:13;;;;;;;18.30;10.20;;;;;;;10.81;75.70;99298.99;80643;1295;3054079;-70
2023/04/04 06:55:40;;;;;;;24.80;11.90;;;;;;;11.36;73.83;99291.98;81937;1297;3011289;-68
2023/04/04 06:58:11;;;;;;;32.70;14.80;;;;;;;11.93;71.78;99292.34;80649;1301;3051236;-68
2023/04/04 07:00:41;;;;;;;37.00;16.60;;;;;;;12.09;70.80;99288.98;82007;1298;3013390;-71
2023/04/04 07:03:10;;;;;;;39.90;18.20;;;;;;;12.05;71.11;99288.58;80730;1297;3056565;-73
2023/04/04 07:05:38;;;;;;;49.70;19.80;;;;;;;12.00;71.19;99289.04;82050;1295;3018885;-70
2023/04/04 07:08:05;;;;;;;48.90;20.30;;;;;;;11.81;71.88;99286.80;81940;1295;3011481;-72
2023/04/04 07:10:33;;;;;;;50.10;21.50;;;;;;;11.78;71.52;99284.92;80720;1298;3052222;-71
2023/04/04 07:13:01;;;;;;;47.30;21.20;;;;;;;11.83;71.27;99287.73;82094;1298;3012567;-70
2023/04/04 07:15:32;;;;;;;49.20;20.80;;;;;;;11.88;71.51;99286.02;80720;1296;3051472;-68
2023/04/04 07:18:01;;;;;;;58.60;23.60;;;;;;;11.79;72.00;99282.71;81999;1296;3012887;-65
2023/04/04 07:20:27;;;;;;;53.90;21.10;;;;;;;11.81;71.95;99284.17;82036;1296;3011413;-69
2023/04/04 07:22:57;;;;;;;56.70;23.30;;;;;;;11.79;71.85;99284.15;80735;1298;3049091;-68
2023/04/04 07:25:23;;;;;;;63.20;24.80;;;;;;;11.88;71.75;99282.16;82050;1298;3018600;-70
2023/04/04 07:27:52;;;;;;;55.20;24.30;;;;;;;11.87;71.46;99286.57;82047;1296;3010962;-71
2023/04/04 07:30:21;;;;;;;52.00;21.70;;;;;;;12.01;71.04;99286.41;80747;1298;3050857;-70
2023/04/04 07:32:58;;;;;;;44.60;18.70;;;;;;;12.06;69.81;99284.23;80710;1297;3056964;-70
2023/04/04 07:35:25;;;;;;;39.40;16.60;;;;;;;12.14;68.92;99287.95;82004;1298;3013593;-67
2023/04/04 07:37:52;;;;;;;43.30;17.60;;;;;;;12.19;68.00;99289.29;82010;1296;3011177;-69
2023/04/04 07:40:20;;;;;;;39.30;16.10;;;;;;;12.24;67.84;99284.38;80767;1295;3050155;-71
2023/04/04 07:42:49;;;;;;;45.40;17.30;;;;;;;12.31;67.58;99287.26;81977;1295;3018473;-69
2023/04/04 07:45:18;;;;;;;37.40;15.70;;;;;;;12.40;67.52;99283.48;81552;1296;3011334;-71
2023/04/04 07:47:46;;;;;;;36.20;16.00;;;;;;;12.48;67.47;99282.94;82013;1298;3012695;-72
2023/04/04 07:50:17;;;;;;;39.50;14.40;;;;;;;12.59;67.18;99277.56;81470;1296;3011082;-65
2023/04/04 07:52:51;;;;;;;28.90;14.20;;;;;;;12.66;66.37;99278.13;82065;1295;3013540;-70
2023/04/04 07:55:19;;;;;;;27.20;12.90;;;;;;;12.78;65.83;99281.45;80752;1300;3048998;-70
2023/04/04 07:57:47;;;;;;;23.30;12.30;;;;;;;12.80;65.04;99282.19;82156;1295;3011449;-72
2023/04/04 08:00:16;;;;;;;24.90;12.40;;;;;;;12.85;64.28;99282.19;82081;1295;3011388;-74
2023/04/04 08:02:45;;;;;;;24.10;12.60;;;;;;;12.96;63.96;99278.36;80774;1295;3051589;-70
2023/04/04 08:05:12;;;;;;;19.80;11.00;;;;;;;13.10;63.28;99275.09;82148;1294;3012338;-71
2023/04/04 08:07:38;;;;;;;18.40;10.20;;;;;;;13.18;62.32;99269.39;81949;1295;3011287;-67
2023/04/04 08:10:07;;;;;;;18.00;10.10;;;;;;;13.22;61.71;99267.66;80808;1296;3026057;-68
2023/04/04 08:12:34;;;;;;;13.60;7.50;;;;;;;13.23;60.83;99269.04;82095;1298;3011267;-71
2023/04/04 08:15:01;;;;;;;7.70;4.50;;;;;;;13.31;58.48;99263.36;82166;1295;3011415;-70
2023/04/04 08:17:30;;;;;;;3.90;1.90;;;;;;;13.22;54.78;99262.44;80768;1298;3051437;-72
2023/04/04 08:19:57;;;;;;;2.60;1.40;;;;;;;13.13;53.20;99261.00;82115;1294;3012434;-70
2023/04/04 08:22:23;;;;;;;4.20;2.10;;;;;;;13.07;53.64;99261.95;82071;1296;3011753;-71
2023/04/04 08:24:54;;;;;;;5.00;2.70;;;;;;;13.04;54.17;99264.80;80778;1295;3050380;-71
2023/04/04 08:27:21;;;;;;;4.40;2.80;;;;;;;13.01;54.72;99265.36;82080;1295;3012871;-73
2023/04/04 08:29:48;;;;;;;10.00;4.20;;;;;;;13.02;55.26;99268.10;82056;1298;3011679;-70
2023/04/04 08:32:16;;;;;;;8.30;4.30;;;;;;;12.98;55.88;99269.66;80851;1294;3052055;-71
2023/04/04 08:34:43;;;;;;;12.20;6.90;;;;;;;12.97;57.86;99266.35;82111;1295;3013080;-69
2023/04/04 08:37:10;;;;;;;11.30;7.10;;;;;;;12.97;58.66;99262.86;82106;1295;3011182;-70
2023/04/04 08:39:39;;;;;;;16.80;8.50;;;;;;;12.93;58.96;99261.77;80770;1294;3049015;-70
2023/04/04 08:42:06;;;;;;;13.60;7.80;;;;;;;12.89;59.31;99261.29;82124;1295;3018769;-69
2023/04/04 08:44:33;;;;;;;14.80;7.70;;;;;;;12.90;58.74;99261.75;82117;1295;3011220;-70
2023/04/04 08:47:04;;;;;;;11.00;5.20;;;;;;;12.90;58.13;99262.13;80719;1295;3026536;-68
2023/04/04 08:49:42;;;;;;;9.00;4.40;;;;;;;12.94;57.36;99267.10;82032;1296;3011134;-69
2023/04/04 08:52:10;;;;;;;11.90;4.40;;;;;;;12.93;56.82;99271.17;80714;1295;3048239;-70
2023/04/04 08:54:39;;;;;;;8.30;4.70;;;;;;;12.99;57.12;99277.34;82098;1295;3011429;-71
2023/04/04 08:57:07;;;;;;;8.50;5.00;;;;;;;12.98;57.34;99276.69;82109;1296;3011324;-71
2023/04/04 08:59:35;;;;;;;9.10;5.50;;;;;;;12.98;57.95;99272.98;80783;1296;3052155;-71
2023/04/04 09:02:08;;;;;;;15.80;6.00;;;;;;;13.01;57.88;99263.41;82129;1297;3012901;-70
2023/04/04 09:04:36;;;;;;;12.70;6.00;;;;;;;13.04;57.79;99263.56;80739;1296;3057077;-69
2023/04/04 09:07:03;;;;;;;9.50;5.40;;;;;;;13.17;57.34;99266.28;81932;1295;3019280;-70
2023/04/04 09:09:31;;;;;;;12.70;6.10;;;;;;;13.25;57.20;99269.77;81923;1298;3011041;-73
2023/04/04 09:12:00;;;;;;;9.70;5.70;;;;;;;13.37;56.86;99270.79;80700;1295;3053145;-66
2023/04/04 09:14:26;;;;;;;10.20;6.10;;;;;;;13.49;56.71;99264.09;82128;1296;3012824;-73
2023/04/04 09:16:53;;;;;;;12.00;6.60;;;;;;;13.58;56.19;99265.89;82033;1295;3011225;-71
2023/04/04 09:19:21;;;;;;;9.90;6.60;;;;;;;13.62;56.16;99267.90;80660;1295;3056861;-75
2023/04/04 09:21:48;;;;;;;11.90;6.10;;;;;;;13.68;55.61;99264.48;82099;1296;3013150;-75
2023/04/04 09:24:15;;;;;;;15.00;7.20;;;;;;;13.75;55.06;99265.52;81940;1296;3011201;-74
2023/04/04 09:26:51;;;;;;;8.90;5.90;;;;;;;13.82;54.88;99264.75;80825;1294;3052717;-72
2023/04/04 09:29:20;;;;;;;9.80;5.50;;;;;;;13.86;54.84;99260.75;81550;1295;3011261;-73
2023/04/04 09:31:49;;;;;;;12.80;6.50;;;;;;;13.89;54.50;99255.05;82114;1297;3011434;-73
2023/04/04 09:34:16;;;;;;;11.10;5.70;;;;;;;13.97;54.31;99250.42;81881;1295;3011464;-72
2023/04/04 09:36:44;;;;;;;11.60;6.00;;;;;;;14.03;54.67;99252.45;80696;1295;3055844;-73
2023/04/04 09:39:11;;;;;;;9.80;5.70;;;;;;;14.10;54.72;99253.25;82027;1294;3012502;-73
2023/04/04 09:41:38;;;;;;;11.80;6.50;;;;;;;14.05;54.37;99247.85;81827;1296;3011171;-71
2023/04/04 09:44:12;;;;;;;8.00;4.60;;;;;;;14.13;54.30;99249.67;80760;1298;3052886;-71
2023/04/04 09:46:40;;;;;;;9.20;5.20;;;;;;;14.25;53.83;99251.95;81821;1299;3013054;-72
2023/04/04 09:49:10;;;;;;;13.40;5.40;;;;;;;14.32;53.66;99251.02;82034;1295;3011502;-70
2023/04/04 09:51:40;;;;;;;10.20;4.60;;;;;;;14.39;53.80;99249.55;80622;1295;3055633;-70
2023/04/04 09:54:10;;;;;;;9.10;5.10;;;;;;;14.45;53.13;99248.52;81968;1295;3012666;-69
2023/04/04 09:56:39;;;;;;;10.40;5.90;;;;;;;14.49;53.22;99246.51;80726;1295;3053699;-71
2023/04/04 09:59:06;;;;;;;8.70;5.40;;;;;;;14.57;53.09;99249.15;81852;1302;3011383;-70
2023/04/04 10:01:34;;;;;;;11.40;5.70;;;;;;;14.65;52.41;99251.08;81987;1297;3011416;-71
2023/04/04 10:04:02;;;;;;;11.10;5.50;;;;;;;14.52;51.75;99252.58;80742;1294;3068606;-71
2023/04/04 10:06:30;;;;;;;9.60;5.20;;;;;;;14.57;52.07;99254.12;82008;1295;3013291;-72
2023/04/04 10:09:02;;;;;;;8.40;5.10;;;;;;;14.57;51.93;99253.42;81450;1295;3011168;-70
2023/04/04 10:11:33;;;;;;;9.80;5.80;;;;;;;14.62;52.15;99253.05;82006;1294;3011433;-70
2023/04/04 10:14:02;;;;;;;9.70;5.30;;;;;;;14.62;52.04;99249.36;80690;1295;3053659;-72
2023/04/04 10:16:35;;;;;;;9.50;5.60;;;;;;;14.73;52.19;99238.95;82008;1296;3011307;-72
2023/04/04 10:19:06;;;;;;;11.30;5.70;;;;;;;14.74;52.25;99230.36;80749;1297;3050861;-73
2023/04/04 10:21:33;;;;;;;11.40;5.90;;;;;;;15.03;51.61;99227.48;82033;1295;3011267;-73
2023/04/04 10:24:07;;;;;;;9.80;5.80;;;;;;;15.19;50.58;99225.50;81470;1294;3011487;-73
2023/04/04 10:26:34;;;;;;;13.40;6.40;;;;;;;15.10;50.41;99221.09;81874;1294;3011552;-73
2023/04/04 10:29:03;;;;;;;12.70;5.30;;;;;;;15.26;50.75;99222.21;80648;1295;3054862;-74
2023/04/04 10:31:30;;;;;;;11.40;5.70;;;;;;;15.45;50.93;99227.88;82048;1294;3011281;-72
2023/04/04 10:34:16;;;;;;;12.50;6.20;;;;;;;15.57;50.85;99223.50;81789;1295;3011404;-74
2023/04/04 10:36:49;;;;;;;10.20;5.60;;;;;;;15.63;49.83;99222.48;80722;1299;3051619;-73
2023/04/04 10:39:37;;;;;;;9.00;5.70;;;;;;;15.68;50.37;99220.80;81847;1295;3011419;-72
2023/04/04 10:42:06;;;;;;;12.70;5.40;;;;;;;15.65;50.29;99213.84;80681;1296;3069434;-72
2023/04/04 10:44:38;;;;;;;13.40;5.30;;;;;;;15.79;49.41;99212.27;81947;1295;3011559;-73
2023/04/04 10:47:25;;;;;;;10.20;5.70;;;;;;;15.87;49.48;99206.15;80701;1298;3058167;-73
2023/04/04 10:49:54;;;;;;;10.00;5.80;;;;;;;15.84;49.12;99199.13;80637;1296;3048858;-70
2023/04/04 10:52:22;;;;;;;11.50;5.50;;;;;;;15.90;49.39;99201.48;81826;1295;3012574;-71
2023/04/04 10:54:49;;;;;;;7.40;5.10;;;;;;;16.09;49.07;99204.98;81853;1297;3011242;-72
2023/04/04 10:57:18;;;;;;;9.20;5.00;;;;;;;16.15;48.31;99207.58;80748;1295;3052386;-71
2023/04/04 11:00:05;;;;;;;9.60;4.70;;;;;;;16.39;48.04;99211.01;82002;1294;3012544;-74
2023/04/04 11:02:46;;;;;;;8.80;4.40;;;;;;;16.39;47.62;99218.91;80610;1295;3056257;-73
2023/04/04 11:05:46;;;;;;;9.00;5.60;;;;;;;16.43;47.67;99222.04;80754;1294;3049226;-71
2023/04/04 11:08:21;;;;;;;9.80;5.00;;;;;;;16.35;47.34;99217.30;80816;1294;3054273;-75
2023/04/04 11:10:51;;;;;;;10.00;5.10;;;;;;;16.40;47.35;99212.48;81482;1295;3011248;-71
2023/04/04 11:13:26;;;;;;;11.60;5.10;;;;;;;16.27;48.02;99207.77;82007;1295;3010988;-73
2023/04/04 11:15:58;;;;;;;;;;;;;;;16.27;48.38;99205.62;80732;1296;3052316;-73
2023/04/04 11:18:42;;;;;;;8.20;4.70;;;;;;;16.19;47.84;99201.82;80758;1297;3051954;-74
2023/04/04 11:21:18;;;;;;;8.00;4.70;;;;;;;16.31;48.24;99207.84;80713;1294;3069183;-72